createdAt,value
2023-01-13T00:01:49.664Z,59.11
2023-01-13T00:03:55.724Z,58.77
2023-01-13T00:06:09.541Z,58.95
2023-01-13T00:08:18.600Z,59.05
2023-01-13T00:10:23.851Z,58.59
2023-01-13T00:12:32.595Z,59.44
2023-01-13T00:14:36.799Z,58.66
2023-01-13T00:16:39.630Z,58.55
2023-01-13T00:18:42.420Z,58.77
2023-01-13T00:20:45.333Z,58.50
2023-01-13T00:22:49.412Z,58.24
2023-01-13T00:24:51.700Z,57.90
2023-01-13T00:26:56.531Z,58.44
2023-01-13T00:29:01.333Z,58.31
2023-01-13T00:31:11.476Z,57.55
2023-01-13T00:33:13.929Z,58.21
2023-01-13T00:35:16.107Z,57.92
2023-01-13T00:37:34.354Z,57.63
2023-01-13T00:39:37.791Z,58.39
2023-01-13T00:41:43.146Z,58.73
2023-01-13T00:43:45.944Z,58.36
2023-01-13T00:45:48.055Z,58.41
2023-01-13T00:47:50.469Z,57.99
2023-01-13T00:49:52.720Z,58.37
2023-01-13T00:51:58.929Z,58.78
2023-01-13T00:54:01.171Z,58.36
2023-01-13T00:56:10.433Z,58.83
2023-01-13T00:58:12.538Z,58.96
2023-01-13T01:00:15.355Z,57.91
2023-01-13T01:02:19.718Z,58.13
2023-01-13T01:04:22.212Z,57.90
2023-01-13T01:06:26.807Z,57.94
2023-01-13T01:08:29.334Z,56.94
2023-01-13T01:10:31.633Z,57.65
2023-01-13T01:12:35.246Z,57.80
2023-01-13T01:14:43.418Z,57.87
2023-01-13T01:16:45.544Z,58.11
2023-01-13T01:18:49.569Z,57.97
2023-01-13T01:20:54.694Z,57.79
2023-01-13T01:22:57.033Z,58.25
2023-01-13T01:24:59.137Z,58.21
2023-01-13T01:27:01.710Z,58.29
2023-01-13T01:29:17.679Z,58.58
2023-01-13T01:31:24.850Z,58.01
2023-01-13T01:33:32.671Z,57.85
2023-01-13T01:35:41.694Z,57.67
2023-01-13T01:37:51.538Z,58.04
2023-01-13T01:39:53.769Z,57.63
2023-01-13T01:41:58.958Z,57.73
2023-01-13T01:44:08.723Z,57.35
2023-01-13T01:46:10.919Z,58.03
2023-01-13T01:48:13.134Z,58.03
2023-01-13T01:50:16.847Z,57.54
2023-01-13T01:52:27.440Z,57.71
2023-01-13T01:54:38.160Z,57.54
2023-01-13T01:56:44.098Z,58.02
2023-01-13T01:58:51.768Z,57.69
2023-01-13T02:00:54.252Z,57.67
2023-01-13T02:02:57.602Z,57.59
2023-01-13T02:05:01.007Z,57.68
2023-01-13T02:07:10.772Z,57.67
2023-01-13T02:09:13.715Z,57.35
2023-01-13T02:11:42.018Z,57.19
2023-01-13T02:13:47.034Z,57.78
2023-01-13T02:15:57.963Z,58.13
2023-01-13T02:18:02.418Z,57.81
2023-01-13T02:20:16.298Z,57.60
2023-01-13T02:22:27.439Z,57.56
2023-01-13T02:24:37.739Z,57.69
2023-01-13T02:26:47.863Z,57.60
2023-01-13T02:29:04.034Z,57.38
2023-01-13T02:31:18.052Z,57.21
2023-01-13T02:33:23.827Z,57.14
2023-01-13T02:35:37.060Z,57.21
2023-01-13T02:37:43.033Z,57.03
2023-01-13T02:39:49.314Z,57.46
2023-01-13T02:42:08.674Z,57.10
2023-01-13T02:44:18.439Z,56.87
2023-01-13T02:46:29.747Z,56.83
2023-01-13T02:48:32.666Z,57.14
2023-01-13T02:51:32.690Z,56.90
2023-01-13T02:53:53.579Z,56.88
2023-01-13T02:55:57.939Z,57.20
2023-01-13T02:58:12.170Z,57.02
2023-01-13T03:00:17.131Z,57.34
2023-01-13T03:02:21.950Z,57.08
2023-01-13T03:04:30.438Z,57.00
2023-01-13T03:06:48.638Z,57.72
2023-01-13T03:08:59.633Z,57.34
2023-01-13T03:11:08.077Z,56.87
2023-01-13T03:13:17.957Z,56.86
2023-01-13T03:15:23.798Z,56.81
2023-01-13T03:17:39.600Z,57.63
2023-01-13T03:19:45.211Z,57.26
2023-01-13T03:21:56.969Z,57.89
2023-01-13T03:24:05.756Z,57.60
2023-01-13T03:26:15.952Z,57.73
2023-01-13T03:28:28.601Z,57.78
2023-01-13T03:30:37.892Z,57.05
2023-01-13T03:32:45.850Z,57.54
2023-01-13T03:34:54.747Z,57.11
2023-01-13T03:37:00.446Z,57.68
2023-01-13T03:39:15.031Z,58.10
2023-01-13T03:41:29.515Z,57.83
2023-01-13T03:43:43.851Z,58.04
2023-01-13T03:45:52.720Z,58.10
2023-01-13T03:48:00.075Z,57.85
2023-01-13T03:50:17.969Z,57.98
2023-01-13T03:52:26.337Z,58.06
2023-01-13T03:54:33.432Z,58.55
2023-01-13T03:56:47.623Z,57.83
2023-01-13T03:58:53.367Z,58.05
2023-01-13T04:01:01.685Z,58.40
2023-01-13T04:03:09.876Z,58.50
2023-01-13T04:05:13.260Z,57.83
2023-01-13T04:07:24.016Z,58.23
2023-01-13T04:09:33.466Z,58.52
2023-01-13T04:11:43.595Z,58.41
2023-01-13T04:13:49.101Z,57.82
2023-01-13T04:15:51.544Z,58.35
2023-01-13T04:17:54.015Z,57.54
2023-01-13T04:19:56.365Z,58.17
2023-01-13T04:21:58.502Z,57.99
2023-01-13T04:24:00.548Z,58.28
2023-01-13T04:26:11.027Z,58.08
2023-01-13T04:28:14.453Z,58.54
2023-01-13T04:30:18.225Z,58.67
2023-01-13T04:32:20.478Z,58.63
2023-01-13T04:34:30.027Z,58.14
2023-01-13T04:36:32.211Z,58.12
2023-01-13T04:38:39.479Z,58.19
2023-01-13T04:40:42.655Z,58.60
2023-01-13T04:42:45.540Z,58.92
2023-01-13T04:44:50.689Z,59.28
2023-01-13T04:46:53.002Z,59.23
2023-01-13T04:48:55.091Z,58.98
2023-01-13T04:51:00.839Z,59.06
2023-01-13T04:53:03.229Z,59.34
2023-01-13T04:55:06.012Z,59.29
2023-01-13T04:57:08.311Z,59.29
2023-01-13T04:59:13.676Z,59.40
2023-01-13T05:01:15.827Z,59.83
2023-01-13T05:03:18.969Z,59.61
2023-01-13T05:05:21.607Z,59.29
2023-01-13T05:07:24.231Z,59.25
2023-01-13T05:09:29.269Z,58.58
2023-01-13T05:11:34.503Z,59.42
2023-01-13T05:13:39.700Z,58.89
2023-01-13T05:15:46.988Z,59.08
2023-01-13T05:17:50.532Z,59.16
2023-01-13T05:19:52.975Z,59.26
2023-01-13T05:22:02.303Z,58.99
2023-01-13T05:24:07.631Z,59.39
2023-01-13T05:26:09.850Z,59.75
2023-01-13T05:28:12.050Z,59.41
2023-01-13T05:30:15.509Z,59.73
2023-01-13T05:32:17.709Z,59.30
2023-01-13T05:34:22.070Z,60.12
2023-01-13T05:36:24.324Z,58.98
2023-01-13T05:38:26.656Z,59.19
2023-01-13T05:40:31.826Z,59.21
2023-01-13T05:42:37.088Z,58.74
2023-01-13T05:44:39.326Z,58.71
2023-01-13T05:46:42.267Z,58.50
2023-01-13T05:48:54.446Z,59.30
2023-01-13T05:50:57.319Z,59.88
2023-01-13T05:53:05.273Z,59.80
2023-01-13T05:55:07.872Z,59.62
2023-01-13T05:57:10.001Z,59.05
2023-01-13T05:59:12.227Z,59.45
2023-01-13T06:01:14.571Z,59.62
2023-01-13T06:03:21.312Z,59.56
2023-01-13T06:06:09.978Z,59.67
2023-01-13T06:08:24.683Z,59.50
2023-01-13T06:10:27.591Z,59.44
2023-01-13T06:12:35.794Z,59.87
2023-01-13T06:14:41.421Z,60.28
2023-01-13T06:16:51.950Z,59.90
2023-01-13T06:18:54.868Z,60.73
2023-01-13T06:20:57.541Z,60.59
2023-01-13T06:23:07.788Z,60.20
2023-01-13T06:25:27.520Z,60.12
2023-01-13T06:27:30.696Z,60.45
2023-01-13T06:29:32.985Z,60.28
2023-01-13T06:31:43.145Z,60.22
2023-01-13T06:33:51.173Z,61.22
2023-01-13T06:36:03.893Z,60.58
2023-01-13T06:38:10.562Z,61.18
2023-01-13T06:40:15.623Z,60.69
2023-01-13T06:42:36.566Z,61.08
2023-01-13T06:44:38.870Z,60.75
2023-01-13T06:46:45.505Z,60.99
2023-01-13T06:48:47.542Z,60.96
2023-01-13T06:50:51.045Z,60.67
2023-01-13T06:52:53.751Z,60.71
2023-01-13T06:54:58.720Z,61.25
2023-01-13T06:57:03.528Z,61.27
2023-01-13T06:59:08.723Z,61.90
2023-01-13T07:01:13.747Z,61.04
2023-01-13T07:03:20.216Z,61.15
2023-01-13T07:05:22.946Z,60.79
2023-01-13T07:07:28.085Z,61.22
2023-01-13T07:09:33.012Z,61.11
2023-01-13T07:11:42.217Z,60.89
2023-01-13T07:13:47.410Z,60.59
2023-01-13T07:15:53.772Z,60.93
2023-01-13T07:18:08.439Z,60.13
2023-01-13T07:20:14.503Z,60.74
2023-01-13T07:22:17.002Z,60.27
2023-01-13T07:24:20.112Z,60.85
2023-01-13T07:26:22.339Z,60.62
2023-01-13T07:28:31.384Z,60.79
2023-01-13T07:30:42.136Z,61.19
2023-01-13T07:32:44.272Z,60.72
2023-01-13T07:34:48.768Z,60.25
2023-01-13T07:36:51.057Z,60.06
2023-01-13T07:38:54.938Z,60.09
2023-01-13T07:40:57.227Z,60.31
2023-01-13T07:43:05.371Z,59.44
2023-01-13T07:45:40.967Z,59.83
2023-01-13T07:47:43.392Z,59.36
2023-01-13T07:49:45.772Z,58.75
2023-01-13T07:51:50.720Z,58.35
2023-01-13T07:53:52.923Z,58.34
2023-01-13T07:55:58.007Z,58.72
2023-01-13T07:58:00.445Z,58.11
2023-01-13T08:00:15.416Z,58.45
2023-01-13T08:02:19.061Z,58.51
2023-01-13T08:04:30.629Z,58.22
2023-01-13T08:06:33.127Z,58.14
2023-01-13T08:08:38.748Z,58.64
2023-01-13T08:13:17.517Z,58.26
2023-01-13T08:15:42.850Z,57.60
2023-01-13T08:17:50.142Z,57.41
2023-01-13T08:20:00.083Z,57.11
2023-01-13T08:22:11.889Z,57.01
2023-01-13T08:24:16.858Z,56.57
2023-01-13T08:26:19.264Z,56.85
2023-01-13T08:28:24.190Z,57.31
2023-01-13T08:30:37.990Z,56.67
2023-01-13T08:32:44.375Z,57.15
2023-01-13T08:34:51.898Z,56.59
2023-01-13T08:36:57.132Z,56.72
2023-01-13T08:38:59.413Z,56.65
2023-01-13T08:41:10.442Z,56.60
2023-01-13T08:43:19.619Z,56.62
2023-01-13T08:45:22.215Z,56.82
2023-01-13T08:47:36.315Z,56.74
2023-01-13T08:49:38.795Z,57.09
2023-01-13T08:51:54.579Z,57.55
2023-01-13T08:53:56.917Z,57.21
2023-01-13T08:56:02.089Z,57.21
2023-01-13T09:01:23.866Z,57.43
2023-01-13T09:03:29.626Z,57.51
2023-01-13T09:05:50.327Z,56.88
2023-01-13T09:07:54.616Z,57.47
2023-01-13T09:10:02.675Z,57.00
2023-01-13T09:12:13.172Z,57.12
2023-01-13T09:14:20.966Z,57.03
2023-01-13T09:16:31.924Z,57.09
2023-01-13T09:18:37.495Z,56.94
2023-01-13T09:20:43.702Z,56.77
2023-01-13T09:22:51.266Z,57.05
2023-01-13T09:25:43.063Z,56.41
2023-01-13T09:27:48.648Z,56.11
2023-01-13T09:29:51.398Z,55.74
2023-01-13T09:34:38.359Z,56.18
2023-01-13T09:36:40.678Z,56.04
2023-01-13T09:38:42.892Z,55.66
2023-01-13T09:40:53.138Z,56.03
2023-01-13T09:43:17.662Z,55.98
2023-01-13T09:45:24.374Z,55.45
2023-01-13T09:47:33.104Z,54.96
2023-01-13T09:50:04.515Z,54.88
2023-01-13T09:55:41.377Z,55.24
2023-01-13T10:01:57.485Z,54.75
2023-01-13T10:03:30.748Z,54.86
2023-01-13T10:05:36.514Z,54.81
2023-01-13T10:07:49.606Z,54.31
2023-01-13T10:10:03.206Z,54.33
2023-01-13T10:12:23.033Z,54.20
2023-01-13T10:14:32.688Z,54.91
2023-01-13T10:16:42.494Z,54.63
2023-01-13T10:19:05.028Z,54.43
2023-01-13T10:21:13.618Z,54.87
2023-01-13T10:23:26.458Z,54.87
2023-01-13T10:25:41.119Z,54.35
2023-01-13T10:27:47.180Z,54.90
2023-01-13T10:29:49.479Z,54.42
2023-01-13T10:35:04.120Z,54.96
2023-01-13T10:37:35.039Z,54.00
2023-01-13T10:39:45.033Z,54.02
2023-01-13T10:42:07.219Z,53.93
2023-01-13T10:44:17.087Z,53.48
2023-01-13T10:46:39.119Z,53.69
2023-01-13T10:48:57.751Z,53.91
2023-01-13T10:51:18.017Z,53.30
2023-01-13T10:53:29.822Z,53.00
2023-01-13T10:55:39.959Z,53.58
2023-01-13T10:58:03.335Z,52.63
2023-01-13T11:00:31.415Z,53.24
2023-01-13T11:02:40.608Z,53.15
2023-01-13T11:04:49.477Z,52.65
2023-01-13T11:06:53.136Z,52.97
2023-01-13T11:08:59.453Z,51.84
2023-01-13T11:11:02.916Z,52.14
2023-01-13T11:13:16.897Z,52.37
2023-01-13T11:15:29.137Z,51.86
2023-01-13T11:17:47.598Z,51.76
2023-01-13T11:20:00.852Z,51.39
2023-01-13T11:22:09.896Z,51.66
2023-01-13T11:24:22.181Z,51.59
2023-01-13T11:26:38.217Z,51.08
2023-01-13T11:28:52.302Z,50.66
2023-01-13T11:31:00.958Z,51.39
2023-01-13T11:33:17.352Z,51.58
2023-01-13T11:35:22.247Z,51.66
2023-01-13T11:37:31.226Z,51.29
2023-01-13T11:39:39.666Z,51.59
2023-01-13T11:41:44.710Z,51.58
2023-01-13T11:43:55.175Z,52.02
2023-01-13T11:46:06.241Z,51.92
2023-01-13T11:48:15.119Z,51.84
2023-01-13T11:50:31.927Z,51.70
2023-01-13T11:52:41.482Z,51.60
2023-01-13T11:54:56.548Z,51.52
2023-01-13T11:57:05.437Z,51.46
2023-01-13T11:59:09.619Z,51.83
2023-01-13T12:01:23.784Z,51.82
2023-01-13T12:03:32.231Z,51.92
2023-01-13T12:05:51.400Z,52.34
2023-01-13T12:08:00.444Z,51.97
2023-01-13T12:10:13.543Z,51.36
2023-01-13T12:12:33.207Z,51.70
2023-01-13T12:14:46.044Z,50.90
2023-01-13T12:16:55.630Z,51.48
2023-01-13T12:19:08.085Z,51.17
2023-01-13T12:21:18.483Z,51.42
2023-01-13T12:23:39.239Z,50.85
2023-01-13T12:25:56.298Z,50.67
2023-01-13T12:28:09.297Z,50.59
2023-01-13T12:30:24.160Z,50.76
2023-01-13T12:32:34.757Z,49.95
2023-01-13T12:34:55.392Z,50.04
2023-01-13T12:39:37.881Z,49.84
2023-01-13T12:42:04.591Z,49.08
2023-01-13T12:44:12.473Z,49.29
2023-01-13T12:46:25.136Z,48.98
2023-01-13T12:48:36.474Z,48.66
2023-01-13T12:50:41.773Z,48.87
2023-01-13T12:52:45.834Z,48.58
2023-01-13T12:54:49.078Z,49.13
2023-01-13T12:56:51.590Z,48.86
2023-01-13T12:59:23.510Z,48.47
2023-01-13T13:01:38.493Z,48.90
2023-01-13T13:04:03.948Z,48.70
2023-01-13T13:06:13.781Z,48.63
2023-01-13T13:08:24.617Z,48.49
2023-01-13T13:10:30.635Z,48.29
2023-01-13T13:12:58.067Z,48.00
2023-01-13T13:15:09.393Z,48.91
2023-01-13T13:17:22.200Z,48.79
2023-01-13T13:19:52.854Z,49.01
2023-01-13T13:22:04.350Z,48.51
2023-01-13T13:24:23.790Z,48.79
2023-01-13T13:26:33.370Z,49.04
2023-01-13T13:28:42.523Z,48.65
2023-01-13T13:30:54.165Z,48.84
2023-01-13T13:33:08.644Z,49.55
2023-01-13T13:35:19.843Z,49.31
2023-01-13T13:37:28.296Z,49.19
2023-01-13T13:39:40.058Z,49.22
2023-01-13T13:41:49.001Z,48.87
2023-01-13T13:47:12.427Z,48.44
2023-01-13T13:49:26.063Z,48.85
2023-01-13T13:51:44.258Z,48.92
2023-01-13T13:53:48.983Z,49.01
2023-01-13T13:55:58.391Z,48.32
2023-01-13T13:58:08.053Z,48.76
2023-01-13T14:00:28.713Z,49.15
2023-01-13T14:03:10.344Z,48.86
2023-01-13T14:05:32.564Z,49.41
2023-01-13T14:07:49.428Z,48.84
2023-01-13T14:09:55.082Z,49.54
2023-01-13T14:12:06.386Z,49.36
2023-01-13T14:14:17.596Z,48.95
2023-01-13T14:16:20.023Z,49.57
2023-01-13T14:19:28.037Z,49.43
2023-01-13T14:21:31.573Z,49.50
2023-01-13T14:24:14.403Z,49.45
2023-01-13T14:26:40.021Z,49.32
2023-01-13T14:31:58.859Z,48.84
2023-01-13T14:34:32.956Z,49.02
2023-01-13T14:40:20.191Z,49.24
2023-01-13T14:40:20.770Z,49.35
2023-01-13T14:42:25.062Z,49.49
2023-01-13T14:44:47.458Z,49.42
2023-01-13T14:46:58.335Z,49.45
2023-01-13T14:49:01.287Z,49.45
2023-01-13T14:51:10.989Z,49.50
2023-01-13T14:53:22.075Z,49.64
2023-01-13T14:55:31.006Z,49.36
2023-01-13T14:57:39.310Z,48.99
2023-01-13T14:59:52.247Z,49.46
2023-01-13T15:01:55.218Z,48.95
2023-01-13T15:04:48.634Z,48.81
2023-01-13T15:06:56.622Z,48.48
2023-01-13T15:09:01.499Z,48.66
2023-01-13T15:11:24.919Z,48.26
2023-01-13T15:13:37.702Z,48.75
2023-01-13T15:15:43.546Z,48.38
2023-01-13T15:17:56.390Z,48.67
2023-01-13T15:20:01.171Z,48.67
2023-01-13T15:22:07.083Z,48.66
2023-01-13T15:24:12.806Z,48.63
2023-01-13T15:26:21.449Z,48.55
2023-01-13T15:28:26.087Z,48.97
2023-01-13T15:30:28.959Z,49.24
2023-01-13T15:35:55.674Z,49.28
2023-01-13T15:38:12.680Z,49.19
2023-01-13T15:40:41.304Z,49.75
2023-01-13T15:42:46.923Z,50.06
2023-01-13T15:44:56.757Z,50.30
2023-01-13T15:47:11.084Z,49.87
2023-01-13T15:49:35.975Z,50.39
2023-01-13T15:51:44.282Z,50.28
2023-01-13T15:53:50.624Z,50.90
2023-01-13T15:55:55.956Z,50.58
2023-01-13T15:58:07.537Z,50.89
2023-01-13T16:00:31.622Z,51.36
2023-01-13T16:02:44.808Z,51.11
2023-01-13T16:04:53.740Z,51.49
2023-01-13T16:07:08.483Z,51.62
2023-01-13T16:09:21.761Z,52.08
2023-01-13T16:11:27.273Z,51.83
2023-01-13T16:13:32.069Z,52.09
2023-01-13T16:15:39.432Z,51.81
2023-01-13T16:17:47.157Z,52.55
2023-01-13T16:19:54.406Z,51.96
2023-01-13T16:22:08.336Z,51.81
2023-01-13T16:24:10.798Z,51.86
2023-01-13T16:26:30.960Z,52.48
2023-01-13T16:28:36.505Z,52.44
2023-01-13T16:30:42.417Z,52.11
2023-01-13T16:32:44.670Z,52.07
2023-01-13T16:34:49.905Z,51.92
2023-01-13T16:36:52.304Z,51.85
2023-01-13T16:38:58.340Z,51.88
2023-01-13T16:41:01.450Z,52.19
2023-01-13T16:43:07.179Z,51.94
2023-01-13T16:45:12.504Z,52.33
2023-01-13T16:47:16.845Z,52.16
2023-01-13T16:49:19.751Z,52.89
2023-01-13T16:51:24.164Z,52.64
2023-01-13T16:53:26.446Z,52.69
2023-01-13T16:55:28.949Z,52.48
2023-01-13T16:57:35.374Z,52.63
2023-01-13T16:59:37.809Z,52.80
2023-01-13T17:01:43.083Z,52.42
2023-01-13T17:06:09.379Z,52.29
2023-01-13T17:08:19.822Z,52.68
2023-01-13T17:10:25.935Z,52.73
2023-01-13T17:12:33.111Z,53.00
2023-01-13T17:14:35.357Z,52.37
2023-01-13T17:16:38.257Z,52.68
2023-01-13T17:18:40.588Z,52.66
2023-01-13T17:20:42.741Z,52.69
2023-01-13T17:22:47.493Z,52.96
2023-01-13T17:24:54.011Z,52.88
2023-01-13T17:26:59.362Z,53.38
2023-01-13T17:29:06.443Z,53.43
2023-01-13T17:31:08.714Z,53.41
2023-01-13T17:33:10.909Z,53.47
2023-01-13T17:35:17.122Z,52.82
2023-01-13T17:37:22.158Z,53.02
2023-01-13T17:39:26.907Z,53.07
2023-01-13T17:41:29.598Z,53.13
2023-01-13T17:43:32.859Z,53.31
2023-01-13T17:45:41.149Z,53.00
2023-01-13T17:47:43.517Z,53.72
2023-01-13T17:49:46.157Z,53.40
2023-01-13T17:51:51.429Z,53.74
2023-01-13T17:53:54.562Z,53.49
2023-01-13T17:55:57.230Z,53.86
2023-01-13T17:57:59.618Z,53.70
2023-01-13T18:00:01.978Z,54.11
2023-01-13T18:02:11.962Z,54.33
2023-01-13T18:04:17.356Z,54.24
2023-01-13T18:06:23.517Z,54.27
2023-01-13T18:08:25.927Z,54.73
2023-01-13T18:10:34.157Z,54.62
2023-01-13T18:12:43.758Z,54.21
2023-01-13T18:14:47.611Z,53.62
2023-01-13T18:16:56.079Z,54.09
2023-01-13T18:19:42.983Z,53.46
2023-01-13T18:21:50.683Z,54.27
2023-01-13T18:24:01.638Z,53.99
2023-01-13T18:26:09.892Z,54.30
2023-01-13T18:28:17.515Z,53.82
2023-01-13T18:30:20.933Z,54.00
2023-01-13T18:32:36.929Z,54.32
2023-01-13T18:34:47.907Z,54.64
2023-01-13T18:36:54.339Z,55.19
2023-01-13T18:39:10.563Z,55.56
2023-01-13T18:41:19.165Z,55.48
2023-01-13T18:43:30.171Z,55.52
2023-01-13T18:45:39.326Z,56.26
2023-01-13T18:47:44.983Z,55.60
2023-01-13T18:49:47.350Z,56.20
2023-01-13T18:51:56.012Z,56.19
2023-01-13T18:54:01.494Z,56.33
2023-01-13T18:56:15.541Z,56.79
2023-01-13T18:58:20.758Z,56.80
2023-01-13T19:00:29.074Z,57.04
2023-01-13T19:02:32.103Z,57.33
2023-01-13T19:04:36.060Z,57.49
2023-01-13T19:06:40.850Z,57.59
2023-01-13T19:08:48.053Z,57.55
2023-01-13T19:11:05.093Z,57.35
2023-01-13T19:13:37.354Z,57.18
2023-01-13T19:15:39.481Z,58.23
2023-01-13T19:17:41.814Z,57.83
2023-01-13T19:19:46.469Z,58.25
2023-01-13T19:21:48.631Z,58.37
2023-01-13T19:24:01.234Z,58.13
2023-01-13T19:26:13.772Z,58.75
2023-01-13T19:28:15.966Z,58.18
2023-01-13T19:30:18.753Z,58.82
2023-01-13T19:32:27.471Z,58.49
2023-01-13T19:34:29.932Z,57.89
2023-01-13T19:36:32.315Z,57.98
2023-01-13T19:38:38.643Z,58.11
2023-01-13T19:40:53.344Z,58.37
2023-01-13T19:42:58.710Z,58.36
2023-01-13T19:45:07.403Z,58.30
2023-01-13T19:47:21.105Z,58.86
2023-01-13T19:49:23.272Z,58.31
2023-01-13T19:52:01.738Z,58.60
2023-01-13T19:54:07.461Z,58.16
2023-01-13T19:56:16.899Z,58.76
2023-01-13T19:58:20.157Z,58.75
2023-01-13T20:03:46.366Z,58.98
2023-01-13T20:06:14.464Z,58.96
2023-01-13T20:08:29.762Z,58.97
2023-01-13T20:10:33.080Z,59.01
2023-01-13T20:12:35.595Z,58.68
2023-01-13T20:14:38.113Z,59.23
2023-01-13T20:16:45.494Z,58.62
2023-01-13T20:18:53.897Z,59.09
2023-01-13T20:20:56.047Z,59.36
2023-01-13T20:23:02.917Z,59.64
2023-01-13T20:25:08.173Z,59.10
2023-01-13T20:27:13.049Z,59.02
2023-01-13T20:29:24.080Z,59.08
2023-01-13T20:31:26.408Z,59.35
2023-01-13T20:33:28.629Z,58.74
2023-01-13T20:35:30.924Z,58.45
2023-01-13T20:38:31.919Z,58.06
2023-01-13T20:40:44.978Z,59.33
2023-01-13T20:42:47.379Z,58.47
2023-01-13T20:44:50.001Z,58.72
2023-01-13T20:47:01.429Z,58.59
2023-01-13T20:49:06.326Z,59.25
2023-01-13T20:51:08.603Z,58.53
2023-01-13T20:53:16.418Z,58.39
2023-01-13T20:55:21.873Z,58.63
2023-01-13T20:57:24.159Z,59.35
2023-01-13T20:59:26.605Z,59.05
2023-01-13T21:01:29.217Z,59.51
2023-01-13T21:03:54.485Z,59.52
2023-01-13T21:06:36.706Z,59.80
2023-01-13T21:08:56.397Z,59.00
2023-01-13T21:11:05.304Z,59.97
2023-01-13T21:13:17.520Z,58.71
2023-01-13T21:15:32.706Z,59.15
2023-01-13T21:17:51.371Z,59.47
2023-01-13T21:19:53.835Z,59.14
2023-01-13T21:21:59.272Z,59.22
2023-01-13T21:24:28.588Z,59.52
2023-01-13T21:26:35.031Z,59.54
2023-01-13T21:28:40.378Z,59.42
2023-01-13T21:30:44.122Z,59.95
2023-01-13T21:32:50.169Z,60.10
2023-01-13T21:34:54.741Z,59.91
2023-01-13T21:37:22.640Z,59.59
2023-01-13T21:39:29.674Z,60.20
2023-01-13T21:41:37.785Z,60.17
2023-01-13T21:43:46.306Z,60.37
2023-01-13T21:45:58.477Z,61.02
2023-01-13T21:48:04.637Z,60.65
2023-01-13T21:50:15.480Z,60.63
2023-01-13T21:52:17.721Z,60.58
2023-01-13T21:57:18.495Z,60.89
2023-01-13T21:59:38.745Z,60.72
2023-01-13T22:02:22.917Z,60.72
2023-01-13T22:04:14.468Z,60.76
2023-01-13T22:06:51.261Z,61.86
2023-01-13T22:09:01.334Z,60.85
2023-01-13T22:11:41.104Z,61.42
2023-01-13T22:13:50.697Z,60.72
2023-01-13T22:15:54.622Z,61.30
2023-01-13T22:18:01.003Z,62.10
2023-01-13T22:20:07.065Z,62.19
2023-01-13T22:22:20.410Z,62.78
2023-01-13T22:24:30.588Z,62.34
2023-01-13T22:26:35.503Z,62.35
2023-01-13T22:28:54.725Z,62.69
2023-01-13T22:30:58.977Z,62.80
2023-01-13T22:33:08.765Z,62.60
2023-01-13T22:35:13.253Z,62.20
2023-01-13T22:37:33.905Z,61.91
2023-01-13T22:40:04.653Z,62.05
2023-01-13T22:42:12.360Z,62.06
2023-01-13T22:44:23.221Z,62.72
2023-01-13T22:46:28.217Z,62.62
2023-01-13T22:48:41.384Z,62.72
2023-01-13T22:50:53.034Z,63.06
2023-01-13T22:53:04.830Z,62.95
2023-01-13T22:55:35.165Z,62.35
2023-01-13T22:57:48.472Z,62.85
2023-01-13T22:59:53.902Z,63.03
2023-01-13T23:02:07.515Z,63.16
2023-01-13T23:04:13.553Z,62.96
2023-01-13T23:06:44.096Z,63.50
2023-01-13T23:08:53.221Z,63.24
2023-01-13T23:11:06.081Z,63.49
2023-01-13T23:13:09.702Z,63.18
2023-01-13T23:15:16.200Z,63.22
2023-01-13T23:17:24.308Z,63.58
2023-01-13T23:19:32.026Z,62.92
2023-01-13T23:21:38.020Z,63.38
2023-01-13T23:23:41.474Z,63.48
2023-01-13T23:25:58.976Z,64.03
2023-01-13T23:28:04.901Z,63.97
2023-01-13T23:30:13.558Z,64.19
2023-01-13T23:32:24.546Z,64.84
2023-01-13T23:34:50.687Z,64.45
2023-01-13T23:37:07.682Z,64.68
2023-01-13T23:39:25.958Z,64.61
2023-01-13T23:41:31.465Z,64.60
2023-01-13T23:43:40.557Z,64.72
2023-01-13T23:45:43.163Z,64.80
2023-01-13T23:47:45.341Z,64.91
2023-01-13T23:49:48.461Z,65.19
2023-01-13T23:51:52.071Z,65.86
2023-01-13T23:53:56.164Z,65.77
2023-01-13T23:55:59.060Z,66.10
2023-01-13T23:58:01.325Z,66.23
